Milbank, South Dakota
Current Conditions -  °F | °C
As of 9:21 PM on Saturday 22 Nov 2014 (Local Time) from KVVV Reporting Station
Haze Haze  
Wind Chill: -3°   Ceiling: Unl
Heat Index:   Visibility: 4mi
Dew Point: -1°   Wind: 9mph
Humidity: 87%   Direction: 130°SE
Pressure: 29.4"   Gusts: NA
Location:  45.22°N, 96.63°W
Report Text: KVVV 230321Z AUTO 13008KT 4SM BR CLR 01/M01 A2940 RMK AO2
Loading
Personal Weather Stations






























Interactive Weather Map New forecast layout! Learn more

10-Day Weather Forecast

Advertisements
Track Severe Weather on mobile